Portada
METAR-TAF:

METAR-TAF

Aeropuertos :

Aeropuerto Internacional de Dusambé

Dusambé, Tayikistán

latitud: 38-33N, longitud: 068-47E, altitud: 803 m

Observación

El informe se hizo hace 38 minutos, a las 07:00 UTC
Viento 4 kt con dirección variable
Temperatura 39°C
Humedad 15%
Presión 1002 hPa
Visibilidad 10 km o más

METAR: UTDD 210700Z VRB02MPS 9999 NSC 39/08 Q1002 R09/D NOSIG RMK QFE684/0913

Hora: 12:38 (07:38 UTC)

Pronóstico

El informe se hizo hace 1 hora y 38 minutos, a las 06:00 UTC
Pronóstico válido del 21 a las 07 UTC al 21 a las 19 UTC
Viento 4 kt con dirección variable
Visibilidad: 6000 m
Escasas nubes a una altura de 6600 ft, Cumulonimbus.
Nubes dispersas a una altura de 13000 ft
Temporalmente
del 21 a las 07 UTC al 21 a las 16 UTC
Viento 10 kt del oeste

TAF: UTDD 210600Z 2107/2119 VRB02MPS 6000 FEW066CB SCT130 TEMPO 2107/2116 27005MPS

Observaciones y pronósticos meteorológicos de más de 4000 aeropuertos (mensajes METAR y TAF).

Los puntos amarillos y rojos representan las estaciones disponibles.

Ponga el ratón en el punto deseado para ver el nombre de la estación.

Haga clic para ver las observaciones y los pronósticos meteorológicos.

Para cambiar el mapa : haga clic en los botones verdes con una cruz de color negro para hacer un zoom, en el botón verde con un guión para alejar o en las flechas verdes para mapas adyacentes.


METAR-TAF: